Time;durP1;ratioP1;P1;durP2;ratioP2;P2;SDS_P1;SDS_P2;PMS_P1;PMS_P2;Temp;Humidity;BMP_temperature;BMP_pressure;BME280_temperature;BME280_humidity;BME280_pressure;Samples;Min_cycle;Max_cycle;Signal;HPM_P1;HPM_P2
2022/05/20 00:00:25;;;;;;;;;0.50;0.50;;;;;20.04;47.78;101845.34;5033100;28;49804;-62
2022/05/20 00:02:50;;;;;;;;;1.00;1.00;;;;;20.05;47.86;101839.13;5033127;28;49555;-62
2022/05/20 00:05:16;;;;;;;;;2.25;1.00;;;;;20.05;48.07;101841.78;5032776;28;49551;-62
2022/05/20 00:07:41;;;;;;;;;0.75;0.75;;;;;20.06;48.26;101840.88;5032838;28;50529;-61
2022/05/20 00:10:15;;;;;;;;;1.75;1.00;;;;;20.06;48.06;101832.88;5032804;28;49816;-62
2022/05/20 00:12:41;;;;;;;;;2.75;1.50;;;;;20.02;48.04;101827.56;5032840;28;49779;-62
2022/05/20 00:15:09;;;;;;;;;1.00;1.00;;;;;20.07;48.43;101826.66;5033007;28;49768;-63
2022/05/20 00:17:35;;;;;;;;;1.00;1.00;;;;;20.12;47.73;101836.44;5032408;28;51799;-64
2022/05/20 00:20:01;;;;;;;;;3.00;2.00;;;;;20.12;47.89;101838.22;5032506;28;50096;-62
2022/05/20 00:22:27;;;;;;;;;1.00;1.00;;;;;19.98;47.18;101815.16;5032757;28;49899;-65
2022/05/20 00:27:36;;;;;;;;;2.00;2.00;;;;;20.08;47.40;101825.81;5032482;28;49700;-62
2022/05/20 00:30:02;;;;;;;;;1.25;1.00;;;;;20.06;46.98;101827.56;5030485;28;54316;-63
2022/05/20 00:32:27;;;;;;;;;0.25;0.25;;;;;19.98;47.25;101806.28;5031597;28;49704;-62
2022/05/20 00:34:52;;;;;;;;;4.00;1.75;;;;;19.98;47.17;101809.81;5032073;28;49872;-64
2022/05/20 00:37:18;;;;;;;;;1.00;1.00;;;;;20.04;46.99;101827.56;5030163;28;50447;-62
2022/05/20 00:39:43;;;;;;;;;3.75;1.00;;;;;20.11;46.85;101821.34;5032385;28;49776;-63
2022/05/20 00:42:14;;;;;;;;;2.25;1.00;;;;;20.10;46.55;101824.91;5032667;28;49969;-63
2022/05/20 00:44:41;;;;;;;;;0.75;0.75;;;;;20.02;46.66;101824.91;5021588;28;49749;-62
2022/05/20 00:47:06;;;;;;;;;1.00;0.00;;;;;19.94;46.85;101818.69;5013201;28;49617;-65
2022/05/20 00:49:34;;;;;;;;;1.00;1.00;;;;;19.99;46.44;101822.25;5030134;28;49784;-62
2022/05/20 00:52:01;;;;;;;;;1.00;1.00;;;;;19.79;46.88;101793.84;5032294;28;49699;-62
2022/05/20 00:54:35;;;;;;;;;2.50;1.50;;;;;19.72;47.08;101779.66;5032634;28;49837;-62
2022/05/20 00:57:09;;;;;;;;;0.75;0.75;;;;;19.98;47.25;101815.16;5031964;28;49907;-61
2022/05/20 00:59:37;;;;;;;;;2.75;1.00;;;;;19.98;47.07;101807.16;5032128;28;49733;-62
2022/05/20 01:02:08;;;;;;;;;1.00;1.00;;;;;19.95;46.89;101809.81;5032485;28;49907;-62
2022/05/20 01:04:35;;;;;;;;;0.25;0.25;;;;;19.86;47.19;101809.81;5032311;28;49642;-62
2022/05/20 01:07:00;;;;;;;;;1.25;1.25;;;;;19.86;46.99;101803.59;5031787;28;51416;-62
2022/05/20 01:09:26;;;;;;;;;4.00;2.25;;;;;19.89;47.18;101801.84;5031921;28;49853;-62
2022/05/20 01:11:52;;;;;;;;;2.00;2.00;;;;;19.89;47.00;101793.84;5032134;28;49771;-62
2022/05/20 01:14:25;;;;;;;;;0.00;0.00;;;;;19.84;46.90;101784.06;5032425;28;49809;-62
2022/05/20 01:16:52;;;;;;;;;0.25;0.25;;;;;19.76;46.89;101772.53;5031890;28;49804;-62
2022/05/20 01:19:36;;;;;;;;;1.00;1.00;;;;;19.79;47.14;101784.09;5032177;28;49860;-62
2022/05/20 01:22:03;;;;;;;;;3.25;1.00;;;;;19.75;46.69;101790.28;5031962;28;49708;-62
2022/05/20 01:24:29;;;;;;;;;2.50;1.50;;;;;19.63;46.87;101758.34;5032222;28;49744;-63
2022/05/20 01:26:54;;;;;;;;;3.50;2.00;;;;;19.69;47.05;101771.66;5031769;28;50484;-63
2022/05/20 01:29:20;;;;;;;;;1.00;1.00;;;;;19.65;46.87;101757.44;5032004;28;49745;-61
2022/05/20 01:31:45;;;;;;;;;2.00;0.25;;;;;19.61;46.33;101760.13;5032013;28;49717;-62
2022/05/20 01:34:10;;;;;;;;;0.00;0.00;;;;;19.55;46.41;101760.97;5032056;28;49844;-62
2022/05/20 01:36:36;;;;;;;;;1.25;1.25;;;;;19.54;46.30;101752.97;5031349;28;49745;-63
2022/05/20 01:39:02;;;;;;;;;1.00;1.00;;;;;19.52;46.36;101754.75;5031989;28;49765;-63
2022/05/20 01:41:49;;;;;;;;;2.00;1.00;;;;;19.49;46.10;101738.75;5035352;28;49800;-64
2022/05/20 01:44:24;;;;;;;;;1.00;1.00;;;;;19.43;46.51;101740.56;5035362;28;49867;-62
2022/05/20 01:47:02;;;;;;;;;2.00;1.00;;;;;19.24;46.13;101716.59;5034836;28;49621;-61
2022/05/20 01:49:50;;;;;;;;;0.00;0.00;;;;;19.38;46.21;101744.97;5035082;28;49532;-63
2022/05/20 01:52:29;;;;;;;;;0.00;0.00;;;;;19.31;46.49;101732.56;5034855;28;49857;-63
2022/05/20 01:55:13;;;;;;;;;0.50;0.25;;;;;19.31;46.58;101737.00;5034692;28;49973;-66
2022/05/20 01:58:17;;;;;;;;;0.50;0.50;;;;;19.31;46.68;101735.25;5034767;28;49806;-63
2022/05/20 02:00:45;;;;;;;;;0.00;0.00;;;;;19.26;46.63;101731.66;5034873;28;49685;-62
2022/05/20 02:03:17;;;;;;;;;0.00;0.00;;;;;19.22;46.93;101724.59;5034924;28;49720;-62
2022/05/20 02:05:49;;;;;;;;;0.00;0.00;;;;;19.04;46.72;101697.94;5034697;28;49741;-66
2022/05/20 02:08:26;;;;;;;;;1.25;1.00;;;;;19.20;46.86;101720.13;5034577;28;50475;-63
2022/05/20 02:11:00;;;;;;;;;8.25;8.25;;;;;19.22;46.78;101721.03;5034798;28;49636;-62
2022/05/20 02:13:29;;;;;;;;;1.00;1.00;;;;;19.17;47.08;101718.34;5034667;28;49764;-62
2022/05/20 02:16:09;;;;;;;;;1.50;0.75;;;;;19.20;47.18;101715.69;5034915;28;49826;-66
2022/05/20 02:18:51;;;;;;;;;0.00;0.00;;;;;19.16;47.21;101703.28;5034419;28;50460;-62
2022/05/20 02:21:22;;;;;;;;;0.25;0.25;;;;;19.14;47.26;101705.06;5034305;28;50246;-62
2022/05/20 02:23:52;;;;;;;;;0.50;0.50;;;;;19.10;47.56;101697.94;5034704;28;49662;-62
2022/05/20 02:26:24;;;;;;;;;0.75;0.75;;;;;19.10;47.84;101705.91;5034725;28;49969;-63
2022/05/20 02:28:56;;;;;;;;;0.00;0.00;;;;;19.10;47.91;101700.59;5034222;28;50439;-62
2022/05/20 02:31:30;;;;;;;;;1.00;1.00;;;;;19.01;47.92;101684.63;5034046;28;49788;-61
2022/05/20 02:33:56;;;;;;;;;2.75;0.00;;;;;19.15;48.12;101702.38;5034378;28;49805;-62
2022/05/20 02:36:34;;;;;;;;;1.00;1.00;;;;;19.16;48.16;101698.84;5034375;28;49804;-62
2022/05/20 02:39:03;;;;;;;;;3.25;1.00;;;;;19.16;48.37;101703.28;5033974;28;50103;-61
2022/05/20 02:41:29;;;;;;;;;1.00;1.00;;;;;19.11;48.64;101705.06;5034241;28;49825;-62
2022/05/20 02:43:54;;;;;;;;;1.75;1.00;;;;;18.99;48.71;101681.97;5034178;28;49734;-63
2022/05/20 02:46:20;;;;;;;;;1.00;1.00;;;;;18.97;49.20;101680.19;5034280;28;49705;-61
2022/05/20 02:48:45;;;;;;;;;3.00;2.00;;;;;19.07;49.38;101700.59;5034119;28;50509;-61
2022/05/20 02:51:11;;;;;;;;;0.50;0.50;;;;;19.05;49.87;101702.38;5033946;28;49706;-62
2022/05/20 02:53:37;;;;;;;;;2.00;2.00;;;;;19.06;50.16;101690.84;5033953;28;49657;-63
2022/05/20 02:56:03;;;;;;;;;1.00;1.00;;;;;19.08;50.35;101691.72;5034229;28;49776;-62
2022/05/20 03:04:11;;;;;;;;;3.00;1.75;;;;;19.01;51.31;101690.88;5033897;28;49693;-62
2022/05/20 03:06:43;;;;;;;;;1.00;1.00;;;;;18.90;51.04;101673.09;5033785;28;49648;-62
2022/05/20 03:09:11;;;;;;;;;1.50;1.50;;;;;19.04;51.70;101690.84;5033588;28;49641;-62
2022/05/20 03:11:39;;;;;;;;;3.00;2.00;;;;;19.07;51.81;101685.53;5033660;28;49727;-64
2022/05/20 03:14:06;;;;;;;;;3.50;1.75;;;;;19.04;52.05;101684.66;5033693;28;49621;-65
2022/05/20 03:16:32;;;;;;;;;1.25;1.25;;;;;18.92;52.38;101671.34;5033779;28;50025;-62
2022/05/20 03:18:58;;;;;;;;;4.00;3.00;;;;;18.97;52.41;101680.19;5033492;28;49692;-66
2022/05/20 03:21:23;;;;;;;;;2.00;2.00;;;;;18.98;52.68;101689.94;5033335;28;49679;-62
2022/05/20 03:23:49;;;;;;;;;2.50;2.00;;;;;18.98;52.65;101685.50;5033663;28;49644;-62
2022/05/20 03:26:15;;;;;;;;;5.00;4.00;;;;;18.98;52.69;101685.50;5033873;28;50068;-64
2022/05/20 03:28:43;;;;;;;;;1.00;1.00;;;;;18.95;53.03;101688.19;5033244;28;50473;-63
2022/05/20 03:31:09;;;;;;;;;1.75;0.00;;;;;18.97;53.01;101691.72;5033068;28;49722;-62
2022/05/20 03:33:37;;;;;;;;;3.50;2.00;;;;;18.99;53.07;101695.28;5033174;28;49769;-63
2022/05/20 03:36:04;;;;;;;;;1.00;1.00;;;;;18.98;53.03;101688.19;5033115;28;50157;-62
2022/05/20 03:38:29;;;;;;;;;2.00;2.00;;;;;18.98;53.16;101677.53;5033299;28;50315;-63
2022/05/20 03:40:54;;;;;;;;;2.00;1.50;;;;;18.98;53.44;101674.88;5033358;28;49697;-63
2022/05/20 03:43:20;;;;;;;;;4.50;3.50;;;;;18.99;53.58;101666.00;5033247;28;49912;-63
2022/05/20 03:45:45;;;;;;;;;1.75;0.25;;;;;18.96;53.86;101663.34;5033679;28;49816;-64
2022/05/20 03:48:11;;;;;;;;;4.25;3.75;;;;;18.96;54.04;101662.47;5033110;28;50835;-63
2022/05/20 03:50:36;;;;;;;;;4.00;4.00;;;;;18.91;54.22;101656.22;5033035;28;49855;-63
2022/05/20 03:53:03;;;;;;;;;3.00;3.00;;;;;18.91;54.45;101653.56;5033266;28;49649;-63
2022/05/20 03:55:29;;;;;;;;;5.00;3.00;;;;;18.88;54.63;101646.47;5033352;28;49830;-63
2022/05/20 03:57:54;;;;;;;;;3.00;3.00;;;;;18.76;54.83;101633.19;5032907;28;50009;-64
2022/05/20 04:00:21;;;;;;;;;3.00;2.00;;;;;18.77;54.98;101634.94;5033026;28;49764;-63
2022/05/20 04:02:46;;;;;;;;;3.25;3.00;;;;;18.69;55.32;101629.63;5031548;28;49772;-64
2022/05/20 04:05:11;;;;;;;;;1.00;1.00;;;;;18.75;55.43;101634.06;5033035;28;49822;-62
2022/05/20 04:07:38;;;;;;;;;2.25;2.00;;;;;18.75;55.88;101634.06;5032781;28;49685;-63
2022/05/20 04:10:08;;;;;;;;;7.25;6.00;;;;;18.51;56.59;101625.13;5032889;28;49781;-63
2022/05/20 04:12:37;;;;;;;;;4.00;3.00;;;;;18.63;57.28;101650.88;5032665;28;49556;-63
2022/05/20 04:15:06;;;;;;;;;4.00;4.00;;;;;18.55;57.39;101632.22;5032940;28;49816;-66
2022/05/20 04:17:31;;;;;;;;;5.00;4.50;;;;;18.55;57.78;101642.00;5032486;28;49839;-64
2022/05/20 04:19:57;;;;;;;;;3.00;3.00;;;;;18.47;57.71;101631.31;5032519;28;49731;-63
2022/05/20 04:22:29;;;;;;;;;2.75;2.75;;;;;18.58;57.53;101652.63;5032899;28;49626;-63
2022/05/20 04:24:55;;;;;;;;;6.75;3.00;;;;;18.48;58.14;101633.09;5032759;28;49784;-63
2022/05/20 04:27:21;;;;;;;;;4.00;3.00;;;;;18.59;58.42;101647.28;5032321;28;50529;-62
2022/05/20 04:29:46;;;;;;;;;4.75;4.00;;;;;18.59;58.39;101652.63;5032610;28;49742;-62
2022/05/20 04:32:12;;;;;;;;;2.00;2.00;;;;;18.57;58.94;101648.19;5032348;28;49563;-62
2022/05/20 04:34:37;;;;;;;;;5.00;3.50;;;;;18.51;58.89;101629.56;5032555;28;49914;-63
2022/05/20 04:37:03;;;;;;;;;2.75;2.00;;;;;18.50;58.58;101630.44;5032504;28;49785;-62
2022/05/20 04:39:28;;;;;;;;;3.00;3.00;;;;;18.64;59.04;101655.31;5032445;28;49789;-62
2022/05/20 04:47:25;;;;;;;;;3.00;2.75;;;;;18.80;58.42;101658.88;5032340;28;50044;-61
2022/05/20 04:49:51;;;;;;;;;2.00;2.00;;;;;18.88;58.36;101667.78;5014511;28;49687;-62
2022/05/20 04:52:17;;;;;;;;;4.00;3.00;;;;;18.89;58.22;101648.25;5032205;28;49915;-63
2022/05/20 04:54:52;;;;;;;;;3.00;3.00;;;;;19.18;57.57;101669.56;5032516;28;49758;-62
2022/05/20 04:57:34;;;;;;;;;4.25;4.00;;;;;19.25;57.09;101665.13;5032330;28;50449;-62
2022/05/20 05:00:07;;;;;;;;;4.00;4.00;;;;;19.34;56.84;101674.00;5032193;28;49834;-64
2022/05/20 05:02:34;;;;;;;;;5.00;4.00;;;;;19.39;56.56;101680.19;5032095;28;49920;-67
2022/05/20 05:04:59;;;;;;;;;3.00;3.00;;;;;19.42;56.86;101677.53;5032126;28;49694;-64
2022/05/20 05:07:25;;;;;;;;;4.75;3.25;;;;;19.45;56.65;101676.63;5032073;28;50817;-68
2022/05/20 05:09:51;;;;;;;;;4.25;3.75;;;;;19.45;56.71;101669.53;5032273;28;50414;-63
2022/05/20 05:12:17;;;;;;;;;4.00;4.00;;;;;19.45;57.10;101669.53;5034094;28;49777;-62
2022/05/20 05:14:49;;;;;;;;;2.50;2.00;;;;;19.47;57.29;101671.31;5018685;28;49883;-66
2022/05/20 05:18:09;;;;;;;;;5.25;4.25;;;;;19.51;57.42;101679.31;5021068;28;50543;-63
2022/05/20 05:20:03;;;;;;;;;2.50;2.50;;;;;19.45;57.50;101669.53;5029038;28;49764;-62
2022/05/20 05:22:28;;;;;;;;;5.00;5.00;;;;;19.53;57.46;101688.19;5023351;28;49638;-62
2022/05/20 05:24:54;;;;;;;;;2.75;2.75;;;;;19.50;57.64;101676.66;5018630;28;49546;-63
2022/05/20 05:27:19;;;;;;;;;6.75;6.00;;;;;19.51;57.46;101667.78;5021882;28;49817;-62
2022/05/20 05:29:45;;;;;;;;;4.00;4.00;;;;;19.50;57.54;101661.56;5016567;28;49733;-62
2022/05/20 05:32:10;;;;;;;;;4.50;3.00;;;;;19.47;57.86;101653.56;5027685;28;49812;-63
2022/05/20 05:34:35;;;;;;;;;5.75;4.25;;;;;19.48;57.83;101642.00;5024413;28;49754;-66
2022/05/20 05:37:01;;;;;;;;;6.00;4.25;;;;;19.45;58.04;101642.03;5015935;28;50434;-65
2022/05/20 05:39:26;;;;;;;;;5.50;3.50;;;;;19.47;58.02;101644.69;5016053;28;49950;-68
2022/05/20 05:41:52;;;;;;;;;6.00;6.00;;;;;19.47;58.13;101650.88;5016325;28;49834;-63
2022/05/20 05:44:17;;;;;;;;;4.50;4.00;;;;;19.48;58.00;101651.78;5016267;28;49524;-67
2022/05/20 05:46:42;;;;;;;;;6.25;3.75;;;;;19.45;58.23;101645.56;5021900;28;50322;-62
2022/05/20 05:49:08;;;;;;;;;5.75;5.75;;;;;19.45;58.23;101631.38;5039174;28;49693;-62
2022/05/20 05:51:33;;;;;;;;;3.75;3.75;;;;;19.43;58.66;101625.16;5022425;28;49992;-63
2022/05/20 05:53:58;;;;;;;;;5.75;4.50;;;;;19.42;59.08;101623.41;5028728;28;49690;-63
2022/05/20 05:56:24;;;;;;;;;6.00;5.25;;;;;19.39;59.72;101615.41;5022436;28;58483;-63
2022/05/20 05:58:49;;;;;;;;;7.75;6.00;;;;;19.33;60.34;101608.31;5021466;28;49634;-64
2022/05/20 06:01:15;;;;;;;;;6.50;5.25;;;;;19.25;64.62;101628.75;5023493;28;49753;-63
2022/05/20 06:03:42;;;;;;;;;5.50;5.50;;;;;19.13;64.35;101619.00;5029388;28;50010;-62
2022/05/20 06:06:07;;;;;;;;;6.00;5.75;;;;;19.19;65.60;101623.41;5014108;28;50654;-63
2022/05/20 06:08:32;;;;;;;;;8.50;6.25;;;;;19.04;68.76;101644.72;5015483;28;49761;-63
2022/05/20 06:10:59;;;;;;;;;9.00;7.00;;;;;19.02;71.97;101647.41;5015767;28;49595;-62
2022/05/20 06:13:28;;;;;;;;;8.25;7.25;;;;;19.16;72.56;101664.22;5015735;28;49998;-62
2022/05/20 06:15:56;;;;;;;;;7.25;7.25;;;;;19.13;72.14;101661.59;5015392;28;49772;-66
2022/05/20 06:18:23;;;;;;;;;6.50;4.75;;;;;19.07;70.99;101644.72;5013123;28;49884;-75
2022/05/20 06:20:49;;;;;;;;;9.25;6.25;;;;;19.15;71.57;101641.16;5016337;28;49694;-67
2022/05/20 06:23:15;;;;;;;;;7.00;5.75;;;;;19.11;72.59;101626.09;5018294;28;50062;-68
2022/05/20 06:25:41;;;;;;;;;9.25;6.25;;;;;19.03;71.23;101600.38;5014809;28;50820;-68
2022/05/20 06:28:09;;;;;;;;;6.75;5.25;;;;;19.02;72.76;101595.94;5015510;28;49622;-68
2022/05/20 06:30:35;;;;;;;;;9.00;7.25;;;;;18.94;72.62;101558.69;5018612;28;49789;-68
2022/05/20 06:33:01;;;;;;;;;6.00;6.00;;;;;18.97;73.16;101533.84;5021973;28;49541;-67
2022/05/20 06:40:55;;;;;;;;;7.75;7.75;;;;;19.12;74.12;101584.41;5034552;28;49606;-69
2022/05/20 06:43:21;;;;;;;;;6.50;6.00;;;;;19.19;76.20;101630.50;5034708;28;49623;-68
2022/05/20 06:45:53;;;;;;;;;10.75;10.75;;;;;19.05;73.67;101583.53;5032836;28;52271;-68
2022/05/20 06:48:18;;;;;;;;;9.00;9.00;;;;;19.13;75.26;101595.03;5034450;28;49820;-68
2022/05/20 06:50:44;;;;;;;;;9.50;8.00;;;;;19.24;76.75;101603.00;5034200;28;49893;-69
2022/05/20 06:53:10;;;;;;;;;9.00;9.00;;;;;19.29;74.24;101574.59;5027915;28;49889;-68
2022/05/20 06:55:37;;;;;;;;;10.50;8.25;;;;;19.24;74.30;101525.81;5014876;28;49749;-69
2022/05/20 06:58:03;;;;;;;;;11.75;10.50;;;;;19.17;74.04;101439.75;5014985;28;49720;-66
2022/05/20 07:00:28;;;;;;;;;11.00;10.00;;;;;18.99;74.52;101306.78;5014888;28;49854;-67
2022/05/20 07:02:54;;;;;;;;;13.75;12.75;;;;;18.74;76.01;101292.75;4997217;28;49797;-71
2022/05/20 07:05:20;;;;;;;;;11.00;10.00;;;;;18.73;76.00;101346.81;5013978;28;50692;-71
2022/05/20 07:07:46;;;;;;;;;14.25;12.25;;;;;18.96;75.66;101396.41;4999539;28;50083;-72
2022/05/20 07:10:14;;;;;;;;;14.00;10.50;;;;;18.73;74.52;101330.88;5021819;28;49772;-70
2022/05/20 07:12:40;;;;;;;;;11.00;9.00;;;;;18.90;75.48;101369.78;5014800;28;50213;-69
2022/05/20 07:15:07;;;;;;;;;18.50;13.50;;;;;18.81;75.88;101366.28;5016260;28;49612;-69
2022/05/20 07:17:32;;;;;;;;;11.75;11.75;;;;;18.55;75.32;101336.22;5014349;28;49807;-71
2022/05/20 07:19:58;;;;;;;;;13.50;10.50;;;;;18.74;75.43;101361.88;5014201;28;49775;-70
2022/05/20 07:22:23;;;;;;;;;16.00;12.25;;;;;18.64;75.36;101340.63;5014478;28;50029;-70
2022/05/20 07:24:49;;;;;;;;;13.00;11.75;;;;;18.96;75.96;101407.03;5016936;28;51420;-70
2022/05/20 07:27:15;;;;;;;;;11.25;9.75;;;;;18.89;75.57;101384.88;5024469;28;49859;-69
2022/05/20 07:29:41;;;;;;;;;10.25;10.25;;;;;18.56;75.63;101335.31;5013913;28;49960;-69
2022/05/20 07:32:07;;;;;;;;;12.00;11.00;;;;;19.09;76.16;101452.22;5014501;28;49780;-72
2022/05/20 07:34:33;;;;;;;;;14.75;13.50;;;;;19.08;74.95;101457.53;5016871;28;49782;-71
2022/05/20 07:36:59;;;;;;;;;22.75;15.75;;;;;19.18;75.42;101493.88;5013150;28;49777;-70
2022/05/20 07:39:25;;;;;;;;;15.00;14.00;;;;;19.24;75.68;101480.56;5013746;28;49847;-69
2022/05/20 07:41:51;;;;;;;;;16.00;15.00;;;;;19.08;73.99;101439.78;5014156;28;49703;-74
2022/05/20 07:44:17;;;;;;;;;11.75;11.75;;;;;19.50;75.08;101500.91;4996208;28;50735;-69
2022/05/20 07:46:43;;;;;;;;;17.00;16.25;;;;;19.65;75.80;101524.81;5014088;28;49832;-72
2022/05/20 07:49:08;;;;;;;;;14.50;12.00;;;;;19.80;74.46;101537.19;5013934;28;50299;-71
2022/05/20 07:51:36;;;;;;;;;13.00;11.75;;;;;19.76;74.98;101528.31;5013447;28;49871;-70
2022/05/20 07:54:09;;;;;;;;;17.50;13.50;;;;;19.90;73.20;101565.56;5026461;28;49892;-70
2022/05/20 07:56:42;;;;;;;;;19.25;16.50;;;;;19.62;74.68;101549.69;5032667;28;49684;-70
2022/05/20 07:59:12;;;;;;;;;15.00;14.00;;;;;19.82;74.45;101578.91;5013810;28;49710;-70
2022/05/20 08:01:42;;;;;;;;;12.50;12.50;;;;;19.68;74.56;101524.78;5013953;28;49757;-71
2022/05/20 08:07:02;;;;;;;;;15.25;14.75;;;;;19.01;83.46;101512.56;5019984;28;49714;-71
2022/05/20 08:09:28;;;;;;;;;15.00;14.50;;;;;19.03;82.20;101510.78;5013213;28;49869;-71
2022/05/20 08:11:55;;;;;;;;;16.25;16.25;;;;;19.02;81.36;101484.19;5013369;28;49877;-69
2022/05/20 08:14:20;;;;;;;;;13.00;12.50;;;;;19.01;80.57;101464.69;5013334;28;50533;-70
2022/05/20 08:16:46;;;;;;;;;18.75;17.75;;;;;19.16;82.04;101479.69;5015769;28;49726;-70
2022/05/20 08:19:11;;;;;;;;;15.50;15.00;;;;;19.07;81.78;101454.00;5013333;28;49987;-70
2022/05/20 08:21:36;;;;;;;;;22.50;20.25;;;;;19.28;79.64;101495.63;5013283;28;49796;-70
2022/05/20 08:24:02;;;;;;;;;13.25;11.00;;;;;19.20;77.73;101489.44;5013374;28;50613;-70
2022/05/20 08:26:27;;;;;;;;;20.00;16.75;;;;;19.09;79.72;101460.19;5013393;28;49567;-70
2022/05/20 08:28:52;;;;;;;;;18.00;16.00;;;;;18.96;79.94;101437.19;5014713;28;49824;-71
2022/05/20 08:31:18;;;;;;;;;15.50;15.50;;;;;19.14;79.63;101469.06;5013276;28;49908;-70
2022/05/20 08:33:43;;;;;;;;;19.50;17.00;;;;;18.93;79.06;101455.81;5012966;28;49753;-70
2022/05/20 08:36:09;;;;;;;;;23.00;19.25;;;;;18.99;80.04;101457.56;5013254;28;49893;-69
2022/05/20 08:38:35;;;;;;;;;15.50;14.25;;;;;18.90;78.79;101492.16;5013338;28;49706;-70
2022/05/20 08:41:01;;;;;;;;;20.50;15.00;;;;;19.12;81.50;101624.31;4994689;28;50117;-69
2022/05/20 08:43:31;;;;;;;;;17.00;17.00;;;;;19.08;81.71;101651.81;5013147;28;50495;-69
2022/05/20 08:45:58;;;;;;;;;18.50;17.00;;;;;19.06;81.56;101678.44;5013253;28;49697;-69
2022/05/20 08:48:24;;;;;;;;;18.75;17.75;;;;;18.94;82.43;101642.97;5013679;28;49753;-71
2022/05/20 08:50:53;;;;;;;;;18.50;17.25;;;;;18.47;98.66;101535.63;5026345;28;50317;-69
2022/05/20 08:53:23;;;;;;;;;23.75;21.00;;;;;18.54;97.27;101621.59;5015029;28;52462;-67
2022/05/20 08:55:49;;;;;;;;;26.00;23.25;;;;;18.43;96.02;101525.88;5016656;28;49807;-68
2022/05/20 08:58:21;;;;;;;;;24.25;19.25;;;;;18.17;98.14;101479.78;5015269;28;49757;-72
2022/05/20 09:00:47;;;;;;;;;21.75;20.25;;;;;18.11;97.48;101493.94;5015312;28;49785;-71
2022/05/20 09:03:13;;;;;;;;;23.25;20.50;;;;;18.13;96.73;101517.84;5016526;28;50587;-70
2022/05/20 09:05:41;;;;;;;;;23.50;18.00;;;;;18.34;95.17;101520.56;5016675;28;49718;-69
2022/05/20 09:08:21;;;;;;;;;23.25;20.00;;;;;18.42;92.69;101510.78;5016024;28;50214;-68
2022/05/20 09:10:50;;;;;;;;;21.00;20.00;;;;;18.72;91.59;101538.28;5015337;28;49833;-68
2022/05/20 09:16:33;;;;;;;;;20.50;19.75;;;;;18.77;88.59;101509.94;5019722;28;49767;-67
2022/05/20 09:19:06;;;;;;;;;23.00;21.00;;;;;18.96;88.51;101537.41;5016653;28;49801;-68
2022/05/20 09:21:38;;;;;;;;;22.50;19.75;;;;;18.91;86.86;101534.72;5016543;28;50415;-68
2022/05/20 09:24:06;;;;;;;;;31.25;22.75;;;;;18.79;86.91;101510.81;5016168;28;49696;-68
2022/05/20 09:26:47;;;;;;;;;24.25;20.00;;;;;18.82;87.04;101489.56;5016526;28;49733;-68
2022/05/20 09:29:38;;;;;;;;;26.50;21.50;;;;;18.94;87.36;101493.97;5019639;28;49556;-68
2022/05/20 09:32:06;;;;;;;;;20.25;17.75;;;;;18.87;87.33;101487.75;5030585;28;50030;-68
2022/05/20 09:34:39;;;;;;;;;20.50;20.25;;;;;19.05;88.14;101583.53;5034976;28;49924;-68
2022/05/20 09:37:14;;;;;;;;;24.50;21.25;;;;;19.07;87.78;101674.00;5035065;28;49912;-68
2022/05/20 09:39:42;;;;;;;;;21.75;18.00;;;;;19.01;87.44;101658.94;5033983;28;49849;-68
2022/05/20 09:42:55;;;;;;;;;26.25;20.25;;;;;18.88;86.79;101481.53;5035264;28;49925;-68
2022/05/20 09:45:20;;;;;;;;;21.50;19.25;;;;;18.77;90.38;101473.59;5016950;28;50323;-67
2022/05/20 09:47:51;;;;;;;;;23.00;20.50;;;;;19.02;91.99;101511.69;5025724;28;49758;-68
2022/05/20 09:50:17;;;;;;;;;21.50;20.00;;;;;19.25;91.93;101450.38;5017504;28;49891;-67
2022/05/20 09:53:14;;;;;;;;;25.75;23.75;;;;;19.39;90.26;101375.78;5016015;28;49946;-67
2022/05/20 09:55:45;;;;;;;;;25.75;25.25;;;;;19.97;87.42;101386.06;5010149;28;49709;-68
2022/05/20 09:58:31;;;;;;;;;27.00;23.50;;;;;20.34;87.45;101359.97;5028765;28;49654;-66
2022/05/20 10:01:12;;;;;;;;;23.25;21.00;;;;;20.76;86.72;101337.34;5034147;28;49750;-68
2022/05/20 10:03:44;;;;;;;;;28.75;28.25;;;;;21.01;84.44;101316.53;5034980;28;49872;-73
2022/05/20 10:06:35;;;;;;;;;27.75;25.25;;;;;21.36;82.44;101333.91;5034290;28;50035;-69
2022/05/20 10:09:16;;;;;;;;;27.75;24.25;;;;;21.86;82.30;101361.63;5034916;28;49677;-68
2022/05/20 10:12:04;;;;;;;;;22.25;22.25;;;;;22.15;81.70;101361.16;5034661;28;49938;-69
2022/05/20 10:14:45;;;;;;;;;24.00;21.75;;;;;22.42;79.41;101363.34;5031934;28;49919;-72
2022/05/20 10:17:27;;;;;;;;;22.75;19.50;;;;;22.21;79.06;101353.03;5028034;28;52186;-71
2022/05/20 10:20:08;;;;;;;;;23.25;23.25;;;;;21.91;79.52;101382.03;4994788;28;49814;-71
2022/05/20 10:22:39;;;;;;;;;24.75;22.50;;;;;22.11;78.89;101485.13;4994664;28;50107;-73
2022/05/20 10:25:44;;;;;;;;;28.75;24.25;;;;;21.99;80.20;101486.16;5011516;28;49870;-73
2022/05/20 10:34:10;;;;;;;;;31.00;28.00;;;;;21.07;80.61;101223.03;5031642;28;49736;-73
2022/05/20 10:37:05;;;;;;;;;24.75;23.50;;;;;22.55;80.17;101420.19;5032589;28;49836;-71
2022/05/20 10:39:39;;;;;;;;;28.25;24.75;;;;;22.85;79.95;101424.97;5034158;28;49899;-74
2022/05/20 10:42:20;;;;;;;;;28.25;25.50;;;;;22.02;79.10;101255.31;5034177;28;49749;-73
2022/05/20 10:50:26;;;;;;;;;27.00;24.00;;;;;22.88;76.21;101287.53;5033947;28;50185;-76
2022/05/20 10:53:01;;;;;;;;;31.00;28.00;;;;;22.95;74.60;101305.19;5033825;28;50093;-73
2022/05/20 10:55:32;;;;;;;;;25.75;23.75;;;;;23.41;76.00;101373.84;5034028;28;50635;-72
2022/05/20 10:58:10;;;;;;;;;24.75;20.75;;;;;23.82;75.13;101401.50;5034111;28;49891;-72
2022/05/20 11:00:44;;;;;;;;;30.75;25.75;;;;;24.05;74.42;101406.31;5034000;28;50474;-72
2022/05/20 11:03:48;;;;;;;;;32.25;29.75;;;;;22.74;74.47;101206.59;5034065;28;49734;-71
2022/05/20 11:06:13;;;;;;;;;20.25;20.25;;;;;24.16;73.79;101431.97;5033621;28;49867;-74
2022/05/20 11:09:07;;;;;;;;;20.75;20.75;;;;;22.85;73.03;101253.66;5033837;28;49673;-71
2022/05/20 11:11:53;;;;;;;;;24.75;23.00;;;;;23.88;74.29;101455.88;5030173;28;49687;-72
2022/05/20 11:14:31;;;;;;;;;21.25;21.25;;;;;23.82;74.06;101460.47;5033539;28;49659;-72
2022/05/20 11:17:27;;;;;;;;;20.50;20.50;;;;;23.84;75.65;101474.75;5033450;28;49832;-76
2022/05/20 11:20:11;;;;;;;;;24.00;21.75;;;;;22.23;74.66;101234.44;5033889;28;49888;-71
2022/05/20 11:22:55;;;;;;;;;23.50;20.25;;;;;21.99;74.54;101174.25;5033243;28;50748;-74
2022/05/20 11:25:51;;;;;;;;;20.50;19.25;;;;;23.93;74.74;101472.75;5033353;28;49767;-73
2022/05/20 11:28:45;;;;;;;;;21.25;21.25;;;;;23.12;73.06;101292.31;5033520;28;49621;-73
2022/05/20 11:31:40;;;;;;;;;19.50;16.75;;;;;24.52;73.18;101450.78;5033580;28;49600;-74
2022/05/20 11:34:32;;;;;;;;;19.25;19.25;;;;;24.53;72.72;101437.31;5032971;28;50955;-72
2022/05/20 11:37:07;;;;;;;;;11.75;11.75;;;;;24.78;71.77;101461.69;5033059;28;49829;-73
2022/05/20 11:39:56;;;;;;;;;18.75;18.50;;;;;24.84;70.97;101468.69;5033320;28;49946;-72
2022/05/20 11:42:43;;;;;;;;;21.25;15.75;;;;;24.88;70.58;101482.91;5033367;28;49561;-72
2022/05/20 11:45:24;;;;;;;;;15.50;15.50;;;;;24.15;70.06;101340.78;5033197;28;49690;-73
2022/05/20 11:48:08;;;;;;;;;22.50;20.25;;;;;25.15;68.87;101452.63;5033205;28;49839;-71
2022/05/20 11:50:46;;;;;;;;;17.75;17.00;;;;;25.43;68.73;101471.53;5033184;28;49994;-71
2022/05/20 11:53:30;;;;;;;;;15.50;15.25;;;;;25.57;68.28;101468.41;5032890;28;49873;-71
2022/05/20 11:56:16;;;;;;;;;11.50;10.75;;;;;24.48;66.97;101304.13;5033197;28;50804;-74
2022/05/20 11:58:53;;;;;;;;;17.75;16.75;;;;;25.29;67.04;101426.25;5014071;28;49768;-76
2022/05/20 12:01:19;;;;;;;;;17.50;14.50;;;;;25.24;67.34;101420.13;5013918;28;49846;-76
2022/05/20 12:06:45;;;;;;;;;16.50;15.25;;;;;24.73;66.55;101290.91;5014957;28;50060;-78
2022/05/20 12:09:36;;;;;;;;;14.75;14.75;;;;;24.09;65.15;101167.47;4995822;28;49901;-78
2022/05/20 12:12:30;;;;;;;;;17.00;16.75;;;;;24.74;66.30;101290.84;5026836;28;49970;-77
2022/05/20 12:24:40;;;;;;;;;15.50;14.50;;;;;24.95;66.39;101402.13;5026844;28;49880;-79